createdAt,value
2023-01-26T00:00:33.276Z,10.35
2023-01-26T00:01:35.113Z,11.05
2023-01-26T00:02:37.098Z,10.60
2023-01-26T00:03:38.942Z,11.35
2023-01-26T00:04:40.717Z,12.27
2023-01-26T00:05:42.793Z,12.68
2023-01-26T00:06:44.469Z,14.10
2023-01-26T00:07:46.234Z,13.50
2023-01-26T00:08:53.483Z,14.75
2023-01-26T00:09:55.159Z,13.75
2023-01-26T00:10:57.237Z,13.82
2023-01-26T00:11:58.935Z,12.88
2023-01-26T00:13:00.648Z,13.25
2023-01-26T00:14:02.381Z,13.20
2023-01-26T00:15:04.390Z,13.00
2023-01-26T00:16:11.006Z,13.93
2023-01-26T00:17:12.724Z,12.95
2023-01-26T00:18:15.127Z,12.13
2023-01-26T00:19:16.932Z,12.38
2023-01-26T00:20:18.807Z,12.23
2023-01-26T00:21:23.340Z,12.95
2023-01-26T00:22:27.752Z,12.70
2023-01-26T00:23:32.253Z,12.85
2023-01-26T00:24:33.976Z,11.70
2023-01-26T00:25:40.282Z,11.73
2023-01-26T00:26:42.020Z,11.30
2023-01-26T00:27:43.765Z,10.95
2023-01-26T00:28:45.863Z,11.00
2023-01-26T00:29:47.556Z,11.35
2023-01-26T00:30:49.482Z,10.95
2023-01-26T00:31:51.253Z,10.52
2023-01-26T00:32:53.085Z,10.45
2023-01-26T00:33:56.048Z,11.05
2023-01-26T00:34:57.768Z,11.73
2023-01-26T00:36:00.196Z,10.43
2023-01-26T00:37:02.157Z,11.07
2023-01-26T00:38:04.801Z,10.45
2023-01-26T00:39:06.517Z,10.55
2023-01-26T00:40:09.632Z,11.00
2023-01-26T00:41:30.167Z,10.70
2023-01-26T00:42:31.867Z,10.70
2023-01-26T00:43:33.865Z,11.35
2023-01-26T00:44:39.069Z,10.50
2023-01-26T00:45:40.923Z,10.65
2023-01-26T00:46:42.645Z,10.18
2023-01-26T00:47:44.996Z,10.65
2023-01-26T00:48:46.804Z,10.68
2023-01-26T00:49:48.504Z,11.02
2023-01-26T00:50:53.910Z,10.45
2023-01-26T00:51:55.614Z,10.88
2023-01-26T00:52:57.850Z,10.43
2023-01-26T00:53:59.577Z,10.90
2023-01-26T00:55:01.285Z,10.63
2023-01-26T00:56:02.967Z,10.63
2023-01-26T00:57:04.699Z,10.18
2023-01-26T00:58:08.271Z,10.20
2023-01-26T00:59:09.982Z,10.70
2023-01-26T01:00:16.798Z,9.98
2023-01-26T01:01:18.516Z,10.63
2023-01-26T01:02:20.779Z,10.93
2023-01-26T01:03:22.461Z,10.55
2023-01-26T01:04:24.184Z,10.57
2023-01-26T01:05:28.445Z,10.80
2023-01-26T01:06:30.149Z,11.57
2023-01-26T01:07:31.865Z,12.02
2023-01-26T01:08:33.638Z,11.75
2023-01-26T01:09:35.349Z,11.88
2023-01-26T01:10:37.051Z,11.65
2023-01-26T01:11:38.837Z,11.32
2023-01-26T01:12:40.727Z,11.63
2023-01-26T01:13:42.470Z,11.32
2023-01-26T01:14:44.300Z,11.93
2023-01-26T01:15:46.077Z,11.73
2023-01-26T01:16:47.873Z,11.40
2023-01-26T01:17:49.574Z,11.77
2023-01-26T01:18:57.484Z,11.48
2023-01-26T01:19:59.187Z,11.18
2023-01-26T01:21:00.895Z,10.93
2023-01-26T01:22:02.641Z,11.38
2023-01-26T01:23:04.338Z,11.00
2023-01-26T01:24:06.452Z,11.68
2023-01-26T01:25:08.564Z,11.73
2023-01-26T01:26:10.914Z,12.15
2023-01-26T01:27:12.658Z,12.27
2023-01-26T01:28:14.400Z,11.65
2023-01-26T01:29:16.173Z,12.27
2023-01-26T01:30:18.089Z,12.60
2023-01-26T01:31:19.841Z,12.32
2023-01-26T01:32:21.754Z,12.13
2023-01-26T01:33:24.241Z,11.75
2023-01-26T01:34:25.935Z,11.95
2023-01-26T01:35:27.767Z,11.55
2023-01-26T01:36:31.411Z,11.15
2023-01-26T01:37:33.752Z,10.75
2023-01-26T01:38:35.591Z,10.27
2023-01-26T01:39:37.317Z,10.40
2023-01-26T01:40:44.094Z,11.45
2023-01-26T01:41:45.821Z,10.55
2023-01-26T01:42:48.913Z,11.27
2023-01-26T01:43:51.686Z,11.00
2023-01-26T01:45:27.815Z,10.55
2023-01-26T01:46:34.184Z,11.32
2023-01-26T01:47:36.006Z,12.27
2023-01-26T01:49:13.503Z,13.45
2023-01-26T01:50:18.358Z,13.05
2023-01-26T01:51:36.662Z,13.18
2023-01-26T01:52:38.428Z,11.85
2023-01-26T01:53:44.973Z,13.18
2023-01-26T01:55:07.436Z,12.82
2023-01-26T01:56:15.726Z,13.00
2023-01-26T01:57:28.653Z,14.35
2023-01-26T01:58:33.739Z,13.25
2023-01-26T01:59:35.479Z,13.63
2023-01-26T02:00:37.211Z,13.80
2023-01-26T02:01:38.983Z,14.57
2023-01-26T02:02:42.881Z,13.82
2023-01-26T02:03:47.394Z,14.20
2023-01-26T02:04:49.371Z,14.48
2023-01-26T02:05:59.969Z,14.15
2023-01-26T02:07:02.319Z,13.48
2023-01-26T02:08:05.366Z,14.50
2023-01-26T02:09:08.947Z,13.73
2023-01-26T02:10:20.561Z,15.50
2023-01-26T02:11:42.099Z,15.18
2023-01-26T02:12:44.457Z,15.25
2023-01-26T02:13:49.165Z,15.00
2023-01-26T02:14:53.218Z,14.35
2023-01-26T02:15:55.015Z,14.23
2023-01-26T02:16:56.733Z,14.77
2023-01-26T02:18:02.057Z,16.40
2023-01-26T02:19:04.900Z,14.52
2023-01-26T02:20:28.551Z,14.38
2023-01-26T02:21:31.483Z,15.15
2023-01-26T02:22:39.367Z,14.60
2023-01-26T02:23:44.041Z,14.40
2023-01-26T02:24:46.022Z,15.32
2023-01-26T02:25:52.132Z,15.35
2023-01-26T02:26:54.846Z,15.55
2023-01-26T02:27:56.783Z,15.48
2023-01-26T02:28:59.804Z,15.25
2023-01-26T02:30:04.009Z,15.07
2023-01-26T02:31:06.457Z,16.00
2023-01-26T02:32:08.268Z,16.80
2023-01-26T02:33:18.919Z,15.60
2023-01-26T02:34:21.043Z,16.63
2023-01-26T02:35:22.886Z,17.58
2023-01-26T02:36:30.706Z,15.82
2023-01-26T02:37:32.419Z,16.15
2023-01-26T02:38:43.777Z,15.93
2023-01-26T02:40:59.410Z,14.30
2023-01-26T02:42:19.748Z,15.40
2023-01-26T02:43:24.741Z,15.07
2023-01-26T02:44:27.530Z,16.45
2023-01-26T02:45:30.471Z,16.67
2023-01-26T02:46:32.233Z,16.30
2023-01-26T02:47:34.089Z,15.85
2023-01-26T02:48:54.297Z,16.50
2023-01-26T02:49:58.326Z,16.67
2023-01-26T02:51:00.108Z,15.35
2023-01-26T02:52:01.819Z,15.13
2023-01-26T02:53:04.036Z,15.98
2023-01-26T02:54:06.066Z,14.00
2023-01-26T02:55:25.169Z,15.50
2023-01-26T02:56:26.926Z,15.35
2023-01-26T02:57:28.709Z,14.77
2023-01-26T02:58:30.415Z,14.75
2023-01-26T02:59:32.135Z,15.57
2023-01-26T03:00:37.497Z,15.30
2023-01-26T03:01:39.390Z,15.07
2023-01-26T03:02:42.096Z,15.07
2023-01-26T03:03:45.262Z,14.80
2023-01-26T03:04:47.066Z,15.77
2023-01-26T03:05:49.425Z,15.32
2023-01-26T03:06:51.147Z,14.75
2023-01-26T03:07:52.876Z,14.82
2023-01-26T03:08:54.621Z,14.75
2023-01-26T03:09:56.372Z,14.70
2023-01-26T03:10:58.085Z,15.07
2023-01-26T03:11:59.784Z,14.95
2023-01-26T03:13:01.590Z,14.85
2023-01-26T03:14:03.289Z,14.68
2023-01-26T03:15:26.173Z,14.75
2023-01-26T03:16:28.066Z,13.57
2023-01-26T03:17:29.820Z,15.20
2023-01-26T03:18:50.033Z,14.30
2023-01-26T03:20:10.391Z,14.55
2023-01-26T03:21:34.062Z,14.10
2023-01-26T03:23:14.010Z,15.70
2023-01-26T03:24:34.716Z,14.63
2023-01-26T03:25:55.757Z,14.37
2023-01-26T03:27:16.365Z,15.63
2023-01-26T03:28:22.496Z,14.97
2023-01-26T03:29:26.755Z,15.20
2023-01-26T03:30:28.508Z,15.57
2023-01-26T03:31:30.297Z,14.52
2023-01-26T03:32:32.132Z,14.00
2023-01-26T03:33:33.836Z,14.60
2023-01-26T03:34:35.681Z,13.57
2023-01-26T03:35:37.352Z,14.80
2023-01-26T03:36:39.147Z,14.48
2023-01-26T03:37:44.349Z,15.30
2023-01-26T03:38:46.123Z,14.18
2023-01-26T03:40:06.278Z,15.02
2023-01-26T03:41:26.836Z,14.55
2023-01-26T03:42:47.263Z,15.63
2023-01-26T03:44:07.891Z,14.50
2023-01-26T03:45:28.431Z,15.45
2023-01-26T03:46:49.065Z,14.00
2023-01-26T03:48:09.428Z,14.63
2023-01-26T03:49:29.835Z,14.23
2023-01-26T03:50:50.379Z,15.45
2023-01-26T03:52:10.956Z,15.82
2023-01-26T03:53:36.527Z,15.60
2023-01-26T03:54:56.906Z,15.35
2023-01-26T03:56:17.224Z,15.45
2023-01-26T03:57:18.931Z,15.75
2023-01-26T03:58:20.631Z,16.27
2023-01-26T03:59:37.887Z,16.33
2023-01-26T04:00:39.743Z,15.60
2023-01-26T04:02:03.954Z,16.15
2023-01-26T04:03:24.671Z,15.48
2023-01-26T04:04:45.167Z,17.10
2023-01-26T04:06:16.019Z,18.58
2023-01-26T04:07:37.269Z,30.17
2023-01-26T04:08:38.972Z,22.80
2023-01-26T04:09:40.741Z,23.80
2023-01-26T04:10:42.416Z,22.50
2023-01-26T04:11:44.167Z,19.67
2023-01-26T04:12:47.542Z,17.42
2023-01-26T04:14:09.303Z,17.58
2023-01-26T04:15:29.857Z,16.48
2023-01-26T04:16:50.294Z,15.90
2023-01-26T04:18:10.704Z,15.35
2023-01-26T04:19:31.160Z,15.63
2023-01-26T04:20:51.947Z,15.48
2023-01-26T04:21:53.694Z,16.23
2023-01-26T04:22:55.459Z,15.85
2023-01-26T04:23:58.399Z,15.90
2023-01-26T04:25:00.129Z,15.55
2023-01-26T04:26:01.862Z,16.08
2023-01-26T04:27:03.714Z,16.35
2023-01-26T04:28:05.431Z,14.65
2023-01-26T04:29:10.185Z,15.30
2023-01-26T04:30:14.321Z,15.82
2023-01-26T04:31:16.576Z,15.88
2023-01-26T04:32:18.377Z,16.58
2023-01-26T04:33:20.522Z,15.25
2023-01-26T04:34:22.292Z,14.77
2023-01-26T04:35:23.985Z,14.38
2023-01-26T04:36:25.998Z,14.75
2023-01-26T04:37:27.704Z,13.88
2023-01-26T04:38:29.423Z,14.75
2023-01-26T04:39:31.156Z,14.65
2023-01-26T04:40:32.893Z,15.15
2023-01-26T04:41:34.960Z,15.27
2023-01-26T04:42:36.946Z,14.27
2023-01-26T04:43:38.737Z,14.10
2023-01-26T04:44:40.435Z,15.15
2023-01-26T04:45:42.135Z,15.00
2023-01-26T04:46:43.996Z,14.80
2023-01-26T04:47:45.814Z,14.38
2023-01-26T04:48:47.717Z,14.90
2023-01-26T04:49:49.436Z,14.98
2023-01-26T04:51:00.325Z,14.55
2023-01-26T04:52:02.049Z,15.43
2023-01-26T04:53:03.872Z,15.50
2023-01-26T04:54:05.608Z,15.05
2023-01-26T04:55:07.597Z,14.23
2023-01-26T04:56:21.232Z,14.68
2023-01-26T04:57:24.726Z,15.10
2023-01-26T04:58:26.972Z,14.25
2023-01-26T04:59:28.775Z,14.68
2023-01-26T05:00:30.470Z,14.07
2023-01-26T05:01:32.772Z,14.02
2023-01-26T05:02:34.499Z,14.90
2023-01-26T05:03:36.202Z,14.88
2023-01-26T05:04:38.077Z,15.25
2023-01-26T05:05:40.106Z,16.38
2023-01-26T05:06:44.791Z,15.50
2023-01-26T05:07:50.404Z,15.85
2023-01-26T05:08:52.122Z,15.50
2023-01-26T05:09:53.812Z,14.68
2023-01-26T05:10:55.664Z,13.20
2023-01-26T05:12:17.363Z,14.45
2023-01-26T05:13:19.124Z,13.10
2023-01-26T05:14:20.868Z,13.68
2023-01-26T05:15:22.962Z,13.90
2023-01-26T05:16:24.888Z,14.57
2023-01-26T05:17:26.642Z,13.93
2023-01-26T05:18:28.743Z,13.95
2023-01-26T05:19:30.485Z,14.20
2023-01-26T05:20:32.840Z,13.65
2023-01-26T05:21:34.574Z,14.18
2023-01-26T05:22:36.498Z,14.73
2023-01-26T05:23:38.352Z,13.07
2023-01-26T05:24:40.053Z,13.55
2023-01-26T05:25:42.641Z,13.63
2023-01-26T05:26:44.422Z,13.63
2023-01-26T05:27:46.634Z,13.30
2023-01-26T05:28:48.377Z,14.20
2023-01-26T05:29:51.456Z,13.73
2023-01-26T05:30:53.201Z,14.40
2023-01-26T05:31:54.946Z,13.75
2023-01-26T05:33:15.099Z,13.82
2023-01-26T05:34:16.808Z,14.02
2023-01-26T05:35:18.752Z,14.32
2023-01-26T05:36:20.484Z,14.07
2023-01-26T05:37:24.971Z,13.95
2023-01-26T05:38:26.743Z,13.55
2023-01-26T05:39:28.501Z,13.45
2023-01-26T05:40:30.265Z,13.07
2023-01-26T05:41:31.976Z,14.05
2023-01-26T05:42:33.678Z,14.40
2023-01-26T05:43:35.381Z,14.00
2023-01-26T05:44:37.091Z,14.38
2023-01-26T05:45:40.264Z,14.02
2023-01-26T05:46:41.969Z,13.20
2023-01-26T05:47:44.990Z,13.80
2023-01-26T05:48:46.702Z,14.27
2023-01-26T05:49:48.495Z,13.48
2023-01-26T05:50:50.193Z,13.60
2023-01-26T05:51:51.888Z,13.93
2023-01-26T05:52:53.700Z,13.20
2023-01-26T05:53:55.390Z,14.10
2023-01-26T05:54:57.154Z,13.13
2023-01-26T05:55:58.873Z,13.32
2023-01-26T05:57:00.564Z,13.20
2023-01-26T05:58:02.299Z,12.95
2023-01-26T05:59:04.061Z,13.23
2023-01-26T06:00:06.992Z,13.40
2023-01-26T06:01:08.819Z,12.80
2023-01-26T06:02:12.815Z,13.02
2023-01-26T06:03:15.012Z,12.35
2023-01-26T06:04:16.862Z,13.25
2023-01-26T06:05:18.840Z,11.55
2023-01-26T06:06:20.652Z,13.30
2023-01-26T06:07:22.382Z,12.13
2023-01-26T06:08:24.122Z,12.70
2023-01-26T06:09:27.474Z,14.05
2023-01-26T06:10:29.417Z,14.55
2023-01-26T06:11:32.963Z,13.27
2023-01-26T06:12:35.626Z,12.90
2023-01-26T06:13:37.312Z,12.50
2023-01-26T06:14:39.117Z,12.75
2023-01-26T06:15:40.828Z,12.30
2023-01-26T06:16:43.185Z,11.75
2023-01-26T06:17:44.898Z,11.55
2023-01-26T06:18:50.014Z,12.60
2023-01-26T06:19:51.851Z,12.27
2023-01-26T06:20:53.642Z,11.68
2023-01-26T06:21:55.330Z,12.63
2023-01-26T06:23:01.613Z,12.02
2023-01-26T06:24:03.760Z,11.57
2023-01-26T06:25:05.770Z,11.90
2023-01-26T06:26:09.382Z,11.68
2023-01-26T06:27:15.157Z,12.23
2023-01-26T06:28:16.964Z,11.68
2023-01-26T06:29:18.746Z,12.45
2023-01-26T06:30:20.567Z,12.05
2023-01-26T06:31:24.625Z,11.55
2023-01-26T06:32:26.410Z,18.42
2023-01-26T06:33:28.155Z,14.60
2023-01-26T06:34:29.876Z,13.18
2023-01-26T06:35:31.569Z,12.38
2023-01-26T06:36:33.679Z,19.95
2023-01-26T06:37:35.708Z,14.52
2023-01-26T06:38:37.892Z,15.30
2023-01-26T06:39:40.296Z,13.07
2023-01-26T06:40:41.974Z,12.70
2023-01-26T06:41:44.663Z,11.85
2023-01-26T06:42:50.266Z,13.13
2023-01-26T06:43:52.263Z,12.15
2023-01-26T06:44:53.993Z,12.70
2023-01-26T06:45:59.469Z,12.32
2023-01-26T06:47:01.295Z,18.27
2023-01-26T06:48:02.992Z,20.95
2023-01-26T06:49:04.866Z,20.02
2023-01-26T06:50:07.151Z,16.45
2023-01-26T06:51:21.043Z,13.95
2023-01-26T06:52:28.436Z,13.07
2023-01-26T06:53:35.064Z,13.65
2023-01-26T06:54:36.754Z,13.18
2023-01-26T06:55:40.311Z,13.55
2023-01-26T06:56:42.488Z,13.75
2023-01-26T06:57:44.204Z,15.02
2023-01-26T06:58:46.190Z,14.68
2023-01-26T06:59:47.915Z,13.48
2023-01-26T07:00:49.713Z,18.13
2023-01-26T07:01:51.479Z,13.82
2023-01-26T07:02:53.476Z,15.98
2023-01-26T07:03:55.589Z,14.95
2023-01-26T07:04:57.716Z,14.30
2023-01-26T07:05:59.433Z,12.43
2023-01-26T07:07:01.131Z,15.82
2023-01-26T07:08:04.426Z,17.15
2023-01-26T07:09:06.485Z,14.68
2023-01-26T07:10:09.065Z,12.57
2023-01-26T07:11:12.602Z,13.45
2023-01-26T07:12:14.919Z,13.32
2023-01-26T07:13:16.837Z,25.05
2023-01-26T07:14:18.543Z,20.02
2023-01-26T07:15:20.239Z,13.73
2023-01-26T07:16:21.942Z,16.38
2023-01-26T07:17:23.707Z,14.75
2023-01-26T07:18:25.408Z,15.48
2023-01-26T07:19:27.190Z,24.85
2023-01-26T07:20:30.027Z,32.17
2023-01-26T07:21:31.773Z,44.30
2023-01-26T07:22:33.548Z,32.85
2023-01-26T07:23:35.291Z,21.23
2023-01-26T07:24:37.009Z,22.17
2023-01-26T07:25:38.698Z,17.52
2023-01-26T07:26:40.494Z,14.13
2023-01-26T07:27:43.656Z,15.07
2023-01-26T07:28:45.503Z,19.73
2023-01-26T07:29:47.217Z,16.00
2023-01-26T07:30:49.363Z,14.23
2023-01-26T07:31:51.412Z,15.10
2023-01-26T07:32:53.161Z,12.90
2023-01-26T07:33:54.931Z,12.10
2023-01-26T07:34:56.647Z,12.05
2023-01-26T07:35:59.602Z,11.50
2023-01-26T07:37:01.386Z,12.73
2023-01-26T07:38:06.056Z,13.85
2023-01-26T07:39:08.626Z,14.38
2023-01-26T07:40:11.369Z,15.93
2023-01-26T07:41:13.591Z,16.10
2023-01-26T07:42:15.313Z,16.42
2023-01-26T07:43:17.484Z,15.90
2023-01-26T07:44:19.209Z,15.65
2023-01-26T07:45:20.899Z,15.05
2023-01-26T07:46:23.636Z,14.60
2023-01-26T07:47:25.794Z,15.15
2023-01-26T07:48:29.922Z,14.38
2023-01-26T07:49:32.060Z,15.00
2023-01-26T07:50:33.768Z,15.88
2023-01-26T07:51:35.461Z,15.43
2023-01-26T07:52:38.306Z,15.05
2023-01-26T07:53:40.335Z,13.95
2023-01-26T07:54:42.090Z,15.60
2023-01-26T07:55:43.909Z,16.08
2023-01-26T07:56:45.621Z,15.93
2023-01-26T07:57:50.491Z,15.02
2023-01-26T07:58:54.268Z,14.02
2023-01-26T07:59:56.047Z,16.40
2023-01-26T08:01:05.464Z,17.45
2023-01-26T08:02:09.973Z,13.35
2023-01-26T08:03:11.719Z,15.68
2023-01-26T08:04:13.673Z,13.63
2023-01-26T08:05:15.492Z,15.02
2023-01-26T08:06:18.634Z,14.85
2023-01-26T08:07:20.768Z,15.80
2023-01-26T08:08:22.558Z,13.48
2023-01-26T08:09:25.087Z,14.02
2023-01-26T08:10:32.980Z,11.85
2023-01-26T08:11:35.415Z,13.07
2023-01-26T08:12:40.188Z,12.82
2023-01-26T08:13:42.835Z,12.73
2023-01-26T08:14:47.104Z,13.15
2023-01-26T08:15:49.106Z,13.50
2023-01-26T08:16:50.875Z,12.98
2023-01-26T08:17:54.668Z,12.88
2023-01-26T08:18:56.388Z,13.45
2023-01-26T08:19:58.132Z,12.55
2023-01-26T08:21:00.531Z,12.88
2023-01-26T08:22:02.240Z,13.85
2023-01-26T08:23:03.952Z,13.98
2023-01-26T08:24:06.599Z,12.60
2023-01-26T08:25:08.782Z,14.00
2023-01-26T08:26:13.776Z,12.40
2023-01-26T08:27:16.394Z,14.00
2023-01-26T08:28:19.396Z,11.80
2023-01-26T08:29:22.914Z,11.23
2023-01-26T08:30:24.613Z,11.38
2023-01-26T08:31:28.098Z,12.55
2023-01-26T08:32:31.142Z,11.85
2023-01-26T08:33:34.045Z,12.10
2023-01-26T08:34:35.951Z,10.77
2023-01-26T08:35:37.637Z,11.55
2023-01-26T08:36:39.924Z,12.00
2023-01-26T08:37:41.636Z,11.43
2023-01-26T08:38:44.509Z,12.27
2023-01-26T08:39:46.206Z,12.27
2023-01-26T08:40:52.579Z,11.10
2023-01-26T08:41:54.699Z,13.65
2023-01-26T08:42:56.456Z,12.52
2023-01-26T08:43:59.533Z,12.45
2023-01-26T08:45:01.229Z,12.80
2023-01-26T08:46:03.384Z,11.52
2023-01-26T08:47:05.135Z,11.80
2023-01-26T08:48:07.163Z,12.25
2023-01-26T08:49:09.550Z,11.35
2023-01-26T08:50:11.902Z,12.05
2023-01-26T08:51:13.859Z,11.88
2023-01-26T08:52:16.819Z,12.15
2023-01-26T08:53:18.542Z,12.70
2023-01-26T08:54:20.252Z,14.48
2023-01-26T08:55:21.963Z,12.45
2023-01-26T08:56:23.708Z,14.00
2023-01-26T08:57:25.407Z,16.70
2023-01-26T08:58:27.118Z,21.70
2023-01-26T08:59:28.836Z,25.23
2023-01-26T09:00:31.402Z,22.95
2023-01-26T09:01:33.128Z,30.10
2023-01-26T09:02:34.942Z,33.38
2023-01-26T09:03:36.783Z,21.33
2023-01-26T09:04:38.535Z,14.60
2023-01-26T09:05:41.246Z,15.07
2023-01-26T09:06:42.965Z,13.20
2023-01-26T09:07:44.882Z,13.40
2023-01-26T09:08:46.586Z,13.35
2023-01-26T09:09:48.324Z,13.48
2023-01-26T09:10:50.028Z,15.70
2023-01-26T09:11:54.759Z,14.45
2023-01-26T09:12:58.315Z,13.15
2023-01-26T09:14:00.010Z,13.43
2023-01-26T09:15:01.797Z,13.50
2023-01-26T09:16:05.459Z,12.63
2023-01-26T09:17:07.167Z,14.68
2023-01-26T09:18:10.051Z,13.57
2023-01-26T09:19:11.825Z,14.05
2023-01-26T09:20:14.136Z,15.63
2023-01-26T09:21:15.836Z,13.00
2023-01-26T09:22:17.564Z,15.38
2023-01-26T09:23:19.333Z,17.90
2023-01-26T09:24:22.300Z,19.23
2023-01-26T09:25:24.040Z,15.18
2023-01-26T09:26:25.988Z,14.85
2023-01-26T09:27:27.823Z,14.70
2023-01-26T09:28:29.741Z,16.17
2023-01-26T09:29:31.467Z,14.45
2023-01-26T09:30:33.686Z,12.43
2023-01-26T09:31:35.656Z,13.05
2023-01-26T09:32:37.514Z,12.25
2023-01-26T09:33:39.265Z,13.02
2023-01-26T09:34:41.014Z,19.75
2023-01-26T09:35:42.746Z,15.15
2023-01-26T09:36:44.523Z,16.40
2023-01-26T09:37:46.273Z,16.50
2023-01-26T09:38:48.293Z,14.48
2023-01-26T09:39:49.989Z,14.10
2023-01-26T09:41:10.942Z,13.70
2023-01-26T09:42:21.417Z,15.50
2023-01-26T09:43:41.789Z,16.77
2023-01-26T09:44:52.211Z,18.42
2023-01-26T09:46:06.007Z,20.47
2023-01-26T09:47:31.266Z,23.55
2023-01-26T09:48:40.147Z,23.65
2023-01-26T09:50:11.296Z,20.83
2023-01-26T09:51:19.802Z,29.67
2023-01-26T09:52:32.445Z,20.88
2023-01-26T09:53:43.767Z,21.58
2023-01-26T09:55:52.179Z,30.20
2023-01-26T09:56:55.771Z,38.40
2023-01-26T09:58:03.308Z,46.25
2023-01-26T09:59:25.958Z,50.80
2023-01-26T10:00:45.794Z,33.88
2023-01-26T10:01:59.650Z,37.53
2023-01-26T10:03:04.152Z,35.78
2023-01-26T10:04:29.967Z,43.03
2023-01-26T10:06:00.968Z,45.58
2023-01-26T10:07:08.921Z,27.65
2023-01-26T10:08:16.886Z,19.08
2023-01-26T10:09:25.968Z,19.85
2023-01-26T10:10:34.700Z,22.52
2023-01-26T10:11:43.346Z,23.20
2023-01-26T10:12:47.249Z,22.20
2023-01-26T10:13:54.585Z,25.55
2023-01-26T10:15:24.847Z,28.33
2023-01-26T10:16:26.622Z,18.42
2023-01-26T10:17:32.406Z,18.23
2023-01-26T10:18:54.822Z,16.88
2023-01-26T10:20:00.260Z,15.40
2023-01-26T10:21:05.084Z,15.27
2023-01-26T10:22:25.352Z,15.77
2023-01-26T10:23:32.981Z,14.73
2023-01-26T10:24:35.127Z,13.30
2023-01-26T10:25:40.181Z,14.82
2023-01-26T10:26:42.514Z,14.43
2023-01-26T10:27:46.062Z,13.93
2023-01-26T10:28:50.770Z,13.13
2023-01-26T10:29:52.501Z,15.20
2023-01-26T10:30:54.599Z,16.83
2023-01-26T10:31:56.509Z,14.65
2023-01-26T10:32:58.476Z,13.77
2023-01-26T10:34:09.220Z,12.70
2023-01-26T10:35:18.397Z,13.68
2023-01-26T10:36:20.428Z,13.32
2023-01-26T10:37:26.585Z,13.07
2023-01-26T10:38:34.439Z,13.98
2023-01-26T10:39:37.822Z,12.88
2023-01-26T10:40:45.628Z,16.75
2023-01-26T10:42:02.478Z,16.77
2023-01-26T10:43:04.226Z,14.60
2023-01-26T10:44:39.250Z,18.30
2023-01-26T10:45:46.967Z,16.95
2023-01-26T10:47:03.824Z,15.25
2023-01-26T10:48:35.503Z,15.20
2023-01-26T10:49:37.220Z,15.30
2023-01-26T10:50:39.063Z,26.77
2023-01-26T10:51:46.437Z,36.75
2023-01-26T10:53:03.057Z,26.67
2023-01-26T10:54:27.242Z,19.55
2023-01-26T10:55:31.593Z,13.82
2023-01-26T10:56:35.101Z,15.48
2023-01-26T10:57:42.970Z,18.50
2023-01-26T10:59:03.366Z,25.48
2023-01-26T11:00:20.751Z,23.27
2023-01-26T11:01:27.597Z,17.45
2023-01-26T11:02:31.426Z,19.27
2023-01-26T11:03:33.529Z,19.00
2023-01-26T11:04:35.236Z,16.55
2023-01-26T11:05:37.132Z,15.95
2023-01-26T11:06:39.128Z,12.82
2023-01-26T11:07:43.314Z,12.77
2023-01-26T11:08:45.073Z,14.65
2023-01-26T11:09:47.694Z,16.63
2023-01-26T11:10:53.189Z,16.92
2023-01-26T11:12:03.818Z,14.68
2023-01-26T11:13:08.557Z,14.98
2023-01-26T11:14:11.444Z,16.40
2023-01-26T11:15:19.787Z,17.05
2023-01-26T11:16:25.322Z,15.50
2023-01-26T11:17:34.461Z,15.65
2023-01-26T11:18:59.594Z,14.60
2023-01-26T11:20:01.799Z,16.52
2023-01-26T11:21:17.886Z,15.43
2023-01-26T11:22:26.731Z,15.02
2023-01-26T11:23:40.213Z,15.07
2023-01-26T11:25:32.654Z,14.55
2023-01-26T11:28:03.674Z,11.55
2023-01-26T11:29:37.459Z,12.82
2023-01-26T11:30:48.017Z,12.60
2023-01-26T11:32:10.939Z,14.88
2023-01-26T11:33:15.464Z,14.60
2023-01-26T11:35:09.317Z,12.75
2023-01-26T11:36:27.600Z,11.18
2023-01-26T11:37:29.299Z,11.82
2023-01-26T11:38:30.979Z,12.20
2023-01-26T11:39:59.260Z,12.77
2023-01-26T11:41:25.650Z,12.43
2023-01-26T11:42:36.494Z,24.92
2023-01-26T11:43:56.531Z,16.10
2023-01-26T11:45:03.955Z,15.60
2023-01-26T11:46:23.436Z,22.08
2023-01-26T11:47:40.047Z,19.10
2023-01-26T11:48:45.402Z,12.23
2023-01-26T11:50:04.765Z,10.35
2023-01-26T11:51:24.459Z,9.88
2023-01-26T11:52:38.226Z,9.35
2023-01-26T11:54:16.745Z,9.77
2023-01-26T11:55:37.606Z,9.35
2023-01-26T11:57:04.595Z,10.15
2023-01-26T11:58:31.563Z,7.93
2023-01-26T11:59:39.124Z,7.90
2023-01-26T12:00:42.713Z,7.93
2023-01-26T12:01:53.288Z,8.52
2023-01-26T12:03:02.040Z,8.43
2023-01-26T12:04:03.862Z,8.43
2023-01-26T12:05:40.474Z,10.65
2023-01-26T12:06:45.810Z,9.20
2023-01-26T12:07:51.669Z,10.43
2023-01-26T12:09:00.249Z,9.07
2023-01-26T12:10:04.935Z,8.63
2023-01-26T12:11:22.971Z,7.40
2023-01-26T12:12:30.222Z,7.10
2023-01-26T12:13:43.932Z,9.45
2023-01-26T12:15:00.834Z,12.00
2023-01-26T12:16:14.715Z,8.73
2023-01-26T12:17:55.635Z,10.18
2023-01-26T12:19:25.957Z,8.98
2023-01-26T12:20:33.933Z,9.15
2023-01-26T12:21:38.640Z,11.30
2023-01-26T12:22:46.696Z,11.57
2023-01-26T12:23:59.437Z,11.68
2023-01-26T12:25:23.638Z,9.48
2023-01-26T12:26:27.839Z,8.63
2023-01-26T12:27:38.681Z,7.80
2023-01-26T12:28:46.759Z,10.18
2023-01-26T12:30:23.671Z,8.68
2023-01-26T12:31:39.112Z,9.32
2023-01-26T12:32:41.256Z,11.02
2023-01-26T12:33:43.420Z,16.65
2023-01-26T12:34:45.491Z,13.40
2023-01-26T12:36:05.280Z,13.73
2023-01-26T12:37:38.933Z,8.63
2023-01-26T12:38:59.331Z,10.82
2023-01-26T12:40:09.372Z,9.98
2023-01-26T12:41:23.363Z,8.88
2023-01-26T12:42:33.824Z,7.82
2023-01-26T12:43:40.034Z,9.48
2023-01-26T12:44:55.327Z,9.35
2023-01-26T12:46:00.504Z,10.05
2023-01-26T12:47:40.655Z,9.35
2023-01-26T12:48:51.539Z,9.10
2023-01-26T12:49:56.334Z,9.95
2023-01-26T12:51:06.357Z,8.52
2023-01-26T12:52:18.611Z,8.82
2023-01-26T12:53:32.223Z,7.47
2023-01-26T12:54:36.669Z,6.82
2023-01-26T12:56:01.704Z,7.47
2023-01-26T12:57:09.842Z,7.65
2023-01-26T12:58:11.537Z,7.45
2023-01-26T12:59:47.277Z,8.85
2023-01-26T13:01:00.908Z,8.50
2023-01-26T13:02:24.586Z,9.82
2023-01-26T13:03:31.748Z,10.52
2023-01-26T13:04:33.614Z,9.63
2023-01-26T13:05:36.408Z,9.32
2023-01-26T13:06:38.574Z,9.13
2023-01-26T13:07:40.966Z,8.80
2023-01-26T13:08:53.902Z,8.07
2023-01-26T13:10:14.474Z,8.63
2023-01-26T13:11:45.137Z,9.40
2023-01-26T13:12:48.383Z,11.50
2023-01-26T13:13:57.115Z,13.65
2023-01-26T13:15:00.869Z,12.65
2023-01-26T13:16:17.654Z,12.27
2023-01-26T13:17:19.357Z,12.02
2023-01-26T13:18:59.989Z,11.80
2023-01-26T13:20:22.124Z,10.40
2023-01-26T13:21:35.875Z,10.15
2023-01-26T13:22:40.785Z,9.82
2023-01-26T13:23:44.200Z,10.77
2023-01-26T13:25:07.855Z,11.60
2023-01-26T13:26:20.133Z,10.45
2023-01-26T13:27:40.099Z,10.07
2023-01-26T13:28:42.181Z,11.10
2023-01-26T13:29:55.433Z,11.50
2023-01-26T13:31:06.318Z,11.45
2023-01-26T13:32:14.051Z,10.60
2023-01-26T13:33:21.968Z,10.77
2023-01-26T13:34:29.331Z,10.40
2023-01-26T13:35:31.920Z,10.25
2023-01-26T13:36:38.052Z,11.32
2023-01-26T13:37:54.700Z,9.65
2023-01-26T13:39:02.514Z,9.98
2023-01-26T13:40:23.968Z,9.85
2023-01-26T13:41:25.729Z,8.15
2023-01-26T13:42:38.028Z,9.25
2023-01-26T13:43:48.640Z,9.45
2023-01-26T13:44:57.968Z,8.10
2023-01-26T13:45:59.791Z,7.75
2023-01-26T13:47:34.515Z,7.95
2023-01-26T13:48:49.309Z,7.43
2023-01-26T13:49:51.309Z,7.20
2023-01-26T13:50:59.654Z,7.07
2023-01-26T13:52:02.304Z,7.53
2023-01-26T13:53:30.232Z,8.35
2023-01-26T13:54:33.058Z,7.10
2023-01-26T13:55:34.951Z,7.43
2023-01-26T13:56:42.171Z,7.50
2023-01-26T13:57:43.955Z,7.28
2023-01-26T13:58:45.734Z,8.20
2023-01-26T13:59:55.491Z,7.90
2023-01-26T14:01:12.155Z,7.35
2023-01-26T14:02:24.049Z,8.05
2023-01-26T14:03:26.433Z,8.35
2023-01-26T14:04:30.833Z,7.97
2023-01-26T14:05:34.333Z,8.65
2023-01-26T14:06:37.371Z,7.90
2023-01-26T14:07:42.535Z,7.78
2023-01-26T14:08:54.521Z,8.00
2023-01-26T14:10:01.397Z,8.43
2023-01-26T14:11:05.990Z,7.65
2023-01-26T14:12:08.627Z,7.53
2023-01-26T14:13:22.707Z,7.82
2023-01-26T14:14:27.557Z,7.68
2023-01-26T14:15:32.680Z,7.47
2023-01-26T14:16:36.616Z,7.40
2023-01-26T14:17:50.191Z,7.53
2023-01-26T14:18:52.261Z,8.48
2023-01-26T14:19:54.097Z,8.13
2023-01-26T14:21:22.488Z,8.77
2023-01-26T14:22:25.557Z,7.65
2023-01-26T14:23:29.184Z,8.57